sensor_id;sensor_type;location;lat;lon;timestamp;pressure;altitude;pressure_sealevel;temperature;humidity
62617;BME280;62539;51.190;6.808;2023-04-27T00:01:56;101664.88;;;19.76;47.92
62617;BME280;62539;51.190;6.808;2023-04-27T00:04:22;101671.03;;;19.75;48.11
62617;BME280;62539;51.190;6.808;2023-04-27T00:06:47;101659.69;;;19.73;48.19
62617;BME280;62539;51.190;6.808;2023-04-27T00:09:12;101662.38;;;19.69;48.34
62617;BME280;62539;51.190;6.808;2023-04-27T00:11:38;101659.81;;;19.68;48.25
62617;BME280;62539;51.190;6.808;2023-04-27T00:14:03;101660.72;;;19.67;48.34
62617;BME280;62539;51.190;6.808;2023-04-27T00:16:29;101666.00;;;19.65;48.29
62617;BME280;62539;51.190;6.808;2023-04-27T00:18:54;101670.44;;;19.63;48.17
62617;BME280;62539;51.190;6.808;2023-04-27T00:21:20;101666.06;;;19.62;48.47
62617;BME280;62539;51.190;6.808;2023-04-27T00:23:45;101666.13;;;19.61;48.47
62617;BME280;62539;51.190;6.808;2023-04-27T00:26:11;101667.06;;;19.58;48.43
62617;BME280;62539;51.190;6.808;2023-04-27T00:28:36;101667.09;;;19.57;48.67
62617;BME280;62539;51.190;6.808;2023-04-27T00:31:01;101674.13;;;19.56;48.54
62617;BME280;62539;51.190;6.808;2023-04-27T00:33:28;101673.28;;;19.54;48.76
62617;BME280;62539;51.190;6.808;2023-04-27T00:35:54;101662.84;;;19.51;48.69
62617;BME280;62539;51.190;6.808;2023-04-27T00:38:19;101675.16;;;19.50;48.86
62617;BME280;62539;51.190;6.808;2023-04-27T00:40:45;101679.59;;;19.48;48.93
62617;BME280;62539;51.190;6.808;2023-04-27T00:43:10;101677.84;;;19.47;48.95
62617;BME280;62539;51.190;6.808;2023-04-27T00:45:40;101677.03;;;19.45;48.95
62617;BME280;62539;51.190;6.808;2023-04-27T00:48:07;101673.53;;;19.45;48.93
62617;BME280;62539;51.190;6.808;2023-04-27T00:50:34;101671.78;;;19.44;49.12
62617;BME280;62539;51.190;6.808;2023-04-27T00:53:00;101665.69;;;19.42;49.16
62617;BME280;62539;51.190;6.808;2023-04-27T00:55:26;101661.34;;;19.41;49.14
62617;BME280;62539;51.190;6.808;2023-04-27T00:57:51;101664.88;;;19.39;49.16
62617;BME280;62539;51.190;6.808;2023-04-27T01:00:17;101672.75;;;19.39;49.24
62617;BME280;62539;51.190;6.808;2023-04-27T01:02:43;101665.81;;;19.37;49.20
62617;BME280;62539;51.190;6.808;2023-04-27T01:05:09;101673.72;;;19.35;49.24
62617;BME280;62539;51.190;6.808;2023-04-27T01:07:39;101676.41;;;19.34;49.29
62617;BME280;62539;51.190;6.808;2023-04-27T01:10:05;101670.28;;;19.33;49.37
62617;BME280;62539;51.190;6.808;2023-04-27T01:12:32;101667.69;;;19.32;49.31
62617;BME280;62539;51.190;6.808;2023-04-27T01:14:57;101667.72;;;19.30;49.49
62617;BME280;62539;51.190;6.808;2023-04-27T01:17:23;101663.34;;;19.29;49.42
62617;BME280;62539;51.190;6.808;2023-04-27T01:19:48;101665.16;;;19.27;49.49
62617;BME280;62539;51.190;6.808;2023-04-27T01:22:15;101665.16;;;19.27;49.54
62617;BME280;62539;51.190;6.808;2023-04-27T01:24:41;101672.22;;;19.25;49.52
62617;BME280;62539;51.190;6.808;2023-04-27T01:27:06;101669.63;;;19.23;49.52
62617;BME280;62539;51.190;6.808;2023-04-27T01:29:32;101667.03;;;19.22;49.65
62617;BME280;62539;51.190;6.808;2023-04-27T01:31:57;101667.06;;;19.20;49.55
62617;BME280;62539;51.190;6.808;2023-04-27T01:34:23;101669.72;;;19.19;49.78
62617;BME280;62539;51.190;6.808;2023-04-27T01:36:48;101667.09;;;19.19;49.63
62617;BME280;62539;51.190;6.808;2023-04-27T01:39:14;101675.03;;;19.17;49.74
62617;BME280;62539;51.190;6.808;2023-04-27T01:41:40;101664.53;;;19.16;49.73
62617;BME280;62539;51.190;6.808;2023-04-27T01:44:06;101673.31;;;19.15;49.67
62617;BME280;62539;51.190;6.808;2023-04-27T01:46:31;101675.13;;;19.13;49.78
62617;BME280;62539;51.190;6.808;2023-04-27T01:48:56;101681.28;;;19.12;49.82
62617;BME280;62539;51.190;6.808;2023-04-27T01:51:22;101683.09;;;19.09;50.00
62617;BME280;62539;51.190;6.808;2023-04-27T01:53:48;101683.09;;;19.09;50.06
62617;BME280;62539;51.190;6.808;2023-04-27T01:56:13;101693.66;;;19.08;49.97
62617;BME280;62539;51.190;6.808;2023-04-27T01:58:38;101686.69;;;19.05;49.94
62617;BME280;62539;51.190;6.808;2023-04-27T02:01:04;101692.84;;;19.04;49.97
62617;BME280;62539;51.190;6.808;2023-04-27T02:03:29;101686.75;;;19.02;49.93
62617;BME280;62539;51.190;6.808;2023-04-27T02:05:55;101690.28;;;19.01;49.89
62617;BME280;62539;51.190;6.808;2023-04-27T02:08:20;101693.81;;;19.00;50.19
62617;BME280;62539;51.190;6.808;2023-04-27T02:10:45;101692.97;;;18.98;50.03
62617;BME280;62539;51.190;6.808;2023-04-27T02:13:11;101689.50;;;18.98;50.10
62617;BME280;62539;51.190;6.808;2023-04-27T02:15:36;101690.38;;;18.95;50.27
62617;BME280;62539;51.190;6.808;2023-04-27T02:18:02;101691.28;;;18.94;50.28
62617;BME280;62539;51.190;6.808;2023-04-27T02:20:30;101686.91;;;18.93;50.23
62617;BME280;62539;51.190;6.808;2023-04-27T02:22:56;101686.09;;;18.91;50.27
62617;BME280;62539;51.190;6.808;2023-04-27T02:25:21;101692.25;;;18.90;50.10
62617;BME280;62539;51.190;6.808;2023-04-27T02:27:47;101687.88;;;18.89;50.47
62617;BME280;62539;51.190;6.808;2023-04-27T02:30:13;101696.66;;;18.88;50.47
62617;BME280;62539;51.190;6.808;2023-04-27T02:32:39;101692.31;;;18.87;50.31
62617;BME280;62539;51.190;6.808;2023-04-27T02:35:05;101688.00;;;18.84;50.63
62617;BME280;62539;51.190;6.808;2023-04-27T02:37:32;101688.91;;;18.81;50.65
62617;BME280;62539;51.190;6.808;2023-04-27T02:39:58;101690.69;;;18.81;50.33
62617;BME280;62539;51.190;6.808;2023-04-27T02:42:24;101676.66;;;18.80;50.45
62617;BME280;62539;51.190;6.808;2023-04-27T02:44:50;101685.44;;;18.79;50.42
62617;BME280;62539;51.190;6.808;2023-04-27T02:47:15;101684.63;;;18.77;50.63
62617;BME280;62539;51.190;6.808;2023-04-27T02:49:41;101680.25;;;18.76;50.64
62617;BME280;62539;51.190;6.808;2023-04-27T02:52:06;101678.53;;;18.75;50.67
62617;BME280;62539;51.190;6.808;2023-04-27T02:54:32;101678.56;;;18.74;50.54
62617;BME280;62539;51.190;6.808;2023-04-27T02:56:58;101670.69;;;18.72;50.67
62617;BME280;62539;51.190;6.808;2023-04-27T02:59:24;101671.59;;;18.71;50.81
62617;BME280;62539;51.190;6.808;2023-04-27T03:01:49;101667.25;;;18.70;50.54
62617;BME280;62539;51.190;6.808;2023-04-27T03:04:15;101667.28;;;18.69;50.82
62617;BME280;62539;51.190;6.808;2023-04-27T03:06:42;101665.56;;;18.68;50.80
62617;BME280;62539;51.190;6.808;2023-04-27T03:09:09;101662.94;;;18.66;50.74
62617;BME280;62539;51.190;6.808;2023-04-27T03:11:35;101666.47;;;18.65;50.89
62617;BME280;62539;51.190;6.808;2023-04-27T03:14:02;101663.88;;;18.63;50.79
62617;BME280;62539;51.190;6.808;2023-04-27T03:16:30;101664.75;;;18.64;50.78
62617;BME280;62539;51.190;6.808;2023-04-27T03:18:56;101658.66;;;18.62;50.91
62617;BME280;62539;51.190;6.808;2023-04-27T03:21:22;101660.44;;;18.60;51.24
62617;BME280;62539;51.190;6.808;2023-04-27T03:23:47;101666.59;;;18.59;51.01
62617;BME280;62539;51.190;6.808;2023-04-27T03:26:13;101679.72;;;18.59;50.93
62617;BME280;62539;51.190;6.808;2023-04-27T03:28:39;101672.78;;;18.56;50.87
62617;BME280;62539;51.190;6.808;2023-04-27T03:31:06;101671.06;;;18.55;51.13
62617;BME280;62539;51.190;6.808;2023-04-27T03:33:33;101675.47;;;18.55;51.04
62617;BME280;62539;51.190;6.808;2023-04-27T03:35:59;101669.38;;;18.53;51.04
62617;BME280;62539;51.190;6.808;2023-04-27T03:38:25;101676.38;;;18.52;51.14
62617;BME280;62539;51.190;6.808;2023-04-27T03:40:51;101672.91;;;18.51;51.21
62617;BME280;62539;51.190;6.808;2023-04-27T03:43:18;101675.53;;;18.51;51.34
62617;BME280;62539;51.190;6.808;2023-04-27T03:45:45;101670.28;;;18.50;51.22
62617;BME280;62539;51.190;6.808;2023-04-27T03:48:11;101670.34;;;18.48;51.28
62617;BME280;62539;51.190;6.808;2023-04-27T03:50:36;101666.81;;;18.49;51.45
62617;BME280;62539;51.190;6.808;2023-04-27T03:53:02;101671.19;;;18.49;51.53
62617;BME280;62539;51.190;6.808;2023-04-27T03:55:27;101679.06;;;18.50;51.49
62617;BME280;62539;51.190;6.808;2023-04-27T03:57:53;101675.53;;;18.50;51.59
62617;BME280;62539;51.190;6.808;2023-04-27T04:00:19;101677.31;;;18.49;51.71
62617;BME280;62539;51.190;6.808;2023-04-27T04:02:44;101681.69;;;18.50;51.70
62617;BME280;62539;51.190;6.808;2023-04-27T04:05:11;101686.94;;;18.50;51.66
62617;BME280;62539;51.190;6.808;2023-04-27T04:07:38;101686.06;;;18.50;51.68
62617;BME280;62539;51.190;6.808;2023-04-27T04:10:06;101691.31;;;18.50;51.50
62617;BME280;62539;51.190;6.808;2023-04-27T04:12:32;101696.56;;;18.50;51.60
62617;BME280;62539;51.190;6.808;2023-04-27T04:14:58;101701.88;;;18.48;51.52
62617;BME280;62539;51.190;6.808;2023-04-27T04:17:23;101696.63;;;18.48;51.28
62617;BME280;62539;51.190;6.808;2023-04-27T04:19:49;101699.25;;;18.47;51.14
62617;BME280;62539;51.190;6.808;2023-04-27T04:22:14;101698.41;;;18.46;50.91
62617;BME280;62539;51.190;6.808;2023-04-27T04:24:39;101707.19;;;18.44;51.01
62617;BME280;62539;51.190;6.808;2023-04-27T04:27:05;101704.63;;;18.42;50.86
62617;BME280;62539;51.190;6.808;2023-04-27T04:29:31;101707.25;;;18.42;51.02
62617;BME280;62539;51.190;6.808;2023-04-27T04:31:57;101701.09;;;18.42;51.07
62617;BME280;62539;51.190;6.808;2023-04-27T04:34:22;101708.13;;;18.41;51.23
62617;BME280;62539;51.190;6.808;2023-04-27T04:36:48;101704.63;;;18.42;51.34
62617;BME280;62539;51.190;6.808;2023-04-27T04:39:17;101707.25;;;18.42;51.61
62617;BME280;62539;51.190;6.808;2023-04-27T04:41:47;101708.09;;;18.43;51.75
62617;BME280;62539;51.190;6.808;2023-04-27T04:44:16;101711.59;;;18.43;51.58
62617;BME280;62539;51.190;6.808;2023-04-27T04:46:42;101715.06;;;18.44;51.83
62617;BME280;62539;51.190;6.808;2023-04-27T04:49:08;101717.69;;;18.45;52.10
62617;BME280;62539;51.190;6.808;2023-04-27T04:51:33;101714.16;;;18.46;52.32
62617;BME280;62539;51.190;6.808;2023-04-27T04:53:59;101715.03;;;18.47;52.18
62617;BME280;62539;51.190;6.808;2023-04-27T04:56:25;101714.13;;;18.48;52.22
62617;BME280;62539;51.190;6.808;2023-04-27T04:58:50;101710.59;;;18.49;52.49
62617;BME280;62539;51.190;6.808;2023-04-27T05:01:16;101707.13;;;18.48;52.07
62617;BME280;62539;51.190;6.808;2023-04-27T05:03:41;101708.91;;;18.46;51.97
62617;BME280;62539;51.190;6.808;2023-04-27T05:06:07;101722.94;;;18.45;52.28
62617;BME280;62539;51.190;6.808;2023-04-27T05:08:33;101725.53;;;18.47;53.05
62617;BME280;62539;51.190;6.808;2023-04-27T05:10:58;101719.38;;;18.48;53.34
62617;BME280;62539;51.190;6.808;2023-04-27T05:13:24;101722.88;;;18.48;53.56
62617;BME280;62539;51.190;6.808;2023-04-27T05:15:50;101723.72;;;18.50;53.43
62617;BME280;62539;51.190;6.808;2023-04-27T05:18:16;101729.84;;;18.51;53.36
62617;BME280;62539;51.190;6.808;2023-04-27T05:20:42;101734.19;;;18.54;53.64
62617;BME280;62539;51.190;6.808;2023-04-27T05:23:07;101739.38;;;18.55;53.45
62617;BME280;62539;51.190;6.808;2023-04-27T05:25:33;101727.94;;;18.58;53.50
62617;BME280;62539;51.190;6.808;2023-04-27T05:28:05;101725.28;;;18.59;53.70
62617;BME280;62539;51.190;6.808;2023-04-27T05:30:35;101729.59;;;18.62;53.83
62617;BME280;62539;51.190;6.808;2023-04-27T05:33:02;101735.69;;;18.64;53.77
62617;BME280;62539;51.190;6.808;2023-04-27T05:35:29;101741.78;;;18.66;53.77
62617;BME280;62539;51.190;6.808;2023-04-27T05:37:55;101738.28;;;18.67;53.74
62617;BME280;62539;51.190;6.808;2023-04-27T05:40:21;101738.22;;;18.70;53.93
62617;BME280;62539;51.190;6.808;2023-04-27T05:42:46;101741.66;;;18.72;53.84
62617;BME280;62539;51.190;6.808;2023-04-27T05:45:12;101735.53;;;18.73;53.83
62617;BME280;62539;51.190;6.808;2023-04-27T05:47:38;101743.34;;;18.76;54.13
62617;BME280;62539;51.190;6.808;2023-04-27T05:50:04;101750.34;;;18.77;54.09
62617;BME280;62539;51.190;6.808;2023-04-27T05:52:29;101748.53;;;18.79;54.08
62617;BME280;62539;51.190;6.808;2023-04-27T05:54:56;101745.91;;;18.81;54.07
62617;BME280;62539;51.190;6.808;2023-04-27T05:57:25;101745.00;;;18.82;54.04
62617;BME280;62539;51.190;6.808;2023-04-27T05:59:51;101752.81;;;18.85;53.57
62617;BME280;62539;51.190;6.808;2023-04-27T06:02:17;101753.66;;;18.86;53.43
62617;BME280;62539;51.190;6.808;2023-04-27T06:04:44;101752.78;;;18.87;53.43
62617;BME280;62539;51.190;6.808;2023-04-27T06:07:11;101761.50;;;18.89;53.42
62617;BME280;62539;51.190;6.808;2023-04-27T06:09:38;101759.69;;;18.91;53.28
62617;BME280;62539;51.190;6.808;2023-04-27T06:12:05;101758.81;;;18.92;53.18
62617;BME280;62539;51.190;6.808;2023-04-27T06:14:33;101765.75;;;18.96;52.87
62617;BME280;62539;51.190;6.808;2023-04-27T06:17:00;101760.50;;;18.98;52.93
62617;BME280;62539;51.190;6.808;2023-04-27T06:19:26;101762.19;;;19.00;53.06
62617;BME280;62539;51.190;6.808;2023-04-27T06:21:55;101762.19;;;19.00;52.96
62617;BME280;62539;51.190;6.808;2023-04-27T06:24:21;101754.28;;;19.00;53.12
62617;BME280;62539;51.190;6.808;2023-04-27T06:26:48;101767.44;;;19.00;52.98
62617;BME280;62539;51.190;6.808;2023-04-27T06:29:14;101759.53;;;19.02;52.81
62617;BME280;62539;51.190;6.808;2023-04-27T06:31:39;101754.22;;;19.03;53.06
62617;BME280;62539;51.190;6.808;2023-04-27T06:34:05;101755.06;;;19.05;52.94
62617;BME280;62539;51.190;6.808;2023-04-27T06:36:31;101750.63;;;19.07;53.01
62617;BME280;62539;51.190;6.808;2023-04-27T06:38:56;101751.47;;;19.09;52.95
62617;BME280;62539;51.190;6.808;2023-04-27T06:41:23;101754.03;;;19.13;53.06
62617;BME280;62539;51.190;6.808;2023-04-27T06:43:50;101753.13;;;19.14;53.11
62617;BME280;62539;51.190;6.808;2023-04-27T06:46:17;101759.22;;;19.16;53.26
62617;BME280;62539;51.190;6.808;2023-04-27T06:48:43;101757.44;;;19.18;53.52
62617;BME280;62539;51.190;6.808;2023-04-27T06:51:08;101758.25;;;19.20;53.43
62617;BME280;62539;51.190;6.808;2023-04-27T06:53:34;101754.72;;;19.22;53.38
62617;BME280;62539;51.190;6.808;2023-04-27T06:55:59;101749.41;;;19.24;53.36
62617;BME280;62539;51.190;6.808;2023-04-27T06:58:25;101754.59;;;19.27;53.15
62617;BME280;62539;51.190;6.808;2023-04-27T07:00:51;101752.81;;;19.29;53.30
62617;BME280;62539;51.190;6.808;2023-04-27T07:03:17;101761.53;;;19.31;53.33
62617;BME280;62539;51.190;6.808;2023-04-27T07:05:43;101751.84;;;19.33;53.09
62617;BME280;62539;51.190;6.808;2023-04-27T07:08:08;101756.19;;;19.36;53.52
62617;BME280;62539;51.190;6.808;2023-04-27T07:10:34;101754.38;;;19.38;53.53
62617;BME280;62539;51.190;6.808;2023-04-27T07:12:59;101749.03;;;19.41;53.44
62617;BME280;62539;51.190;6.808;2023-04-27T07:15:25;101756.00;;;19.44;53.35
62617;BME280;62539;51.190;6.808;2023-04-27T07:17:51;101752.47;;;19.45;53.38
62617;BME280;62539;51.190;6.808;2023-04-27T07:20:19;101750.66;;;19.47;53.17
62617;BME280;62539;51.190;6.808;2023-04-27T07:22:45;101753.28;;;19.48;53.00
62617;BME280;62539;51.190;6.808;2023-04-27T07:25:10;101751.50;;;19.49;53.06
62617;BME280;62539;51.190;6.808;2023-04-27T07:27:36;101754.94;;;19.51;53.12
62617;BME280;62539;51.190;6.808;2023-04-27T07:30:03;101754.06;;;19.52;53.01
62617;BME280;62539;51.190;6.808;2023-04-27T07:32:29;101753.97;;;19.55;52.77
62617;BME280;62539;51.190;6.808;2023-04-27T07:34:55;101755.72;;;19.56;52.68
62617;BME280;62539;51.190;6.808;2023-04-27T07:37:21;101743.38;;;19.58;52.72
62617;BME280;62539;51.190;6.808;2023-04-27T07:39:48;101748.56;;;19.61;53.16
62617;BME280;62539;51.190;6.808;2023-04-27T07:42:14;101751.19;;;19.63;52.67
62617;BME280;62539;51.190;6.808;2023-04-27T07:44:40;101755.50;;;19.65;53.00
62617;BME280;62539;51.190;6.808;2023-04-27T07:47:06;101758.97;;;19.67;52.65
62617;BME280;62539;51.190;6.808;2023-04-27T07:49:32;101758.88;;;19.71;52.79
62617;BME280;62539;51.190;6.808;2023-04-27T07:51:58;101757.97;;;19.72;52.59
62617;BME280;62539;51.190;6.808;2023-04-27T07:54:23;101755.28;;;19.75;52.54
62617;BME280;62539;51.190;6.808;2023-04-27T07:56:49;101756.09;;;19.77;52.74
62617;BME280;62539;51.190;6.808;2023-04-27T07:59:14;101751.66;;;19.79;52.59
62617;BME280;62539;51.190;6.808;2023-04-27T08:01:39;101749.88;;;19.81;52.40
62617;BME280;62539;51.190;6.808;2023-04-27T08:04:05;101761.22;;;19.83;52.38
62617;BME280;62539;51.190;6.808;2023-04-27T08:06:30;101757.66;;;19.86;52.32
62617;BME280;62539;51.190;6.808;2023-04-27T08:08:56;101747.94;;;19.89;52.21
62617;BME280;62539;51.190;6.808;2023-04-27T08:11:25;101746.13;;;19.91;52.47
62617;BME280;62539;51.190;6.808;2023-04-27T08:13:50;101740.78;;;19.94;52.39
62617;BME280;62539;51.190;6.808;2023-04-27T08:16:16;101739.00;;;19.96;52.32
62617;BME280;62539;51.190;6.808;2023-04-27T08:18:43;101742.44;;;19.98;52.35
62617;BME280;62539;51.190;6.808;2023-04-27T08:21:08;101738.00;;;20.01;52.49
62617;BME280;62539;51.190;6.808;2023-04-27T08:23:34;101737.97;;;20.02;52.28
62617;BME280;62539;51.190;6.808;2023-04-27T08:26:01;101737.09;;;20.03;52.27
62617;BME280;62539;51.190;6.808;2023-04-27T08:28:27;101725.63;;;20.04;51.73
62617;BME280;62539;51.190;6.808;2023-04-27T08:30:52;101730.84;;;20.06;51.37
62617;BME280;62539;51.190;6.808;2023-04-27T08:33:18;101731.72;;;20.06;50.71
62617;BME280;62539;51.190;6.808;2023-04-27T08:35:43;101724.69;;;20.07;50.20
62617;BME280;62539;51.190;6.808;2023-04-27T08:38:08;101718.50;;;20.08;49.51
62617;BME280;62539;51.190;6.808;2023-04-27T08:40:34;101724.66;;;20.08;49.37
62617;BME280;62539;51.190;6.808;2023-04-27T08:43:00;101721.97;;;20.10;49.46
62617;BME280;62539;51.190;6.808;2023-04-27T08:45:26;101726.34;;;20.11;49.45
62617;BME280;62539;51.190;6.808;2023-04-27T08:47:52;101728.88;;;20.14;49.35
62617;BME280;62539;51.190;6.808;2023-04-27T08:50:18;101720.06;;;20.17;49.31
62617;BME280;62539;51.190;6.808;2023-04-27T08:52:47;101722.63;;;20.18;49.59
62617;BME280;62539;51.190;6.808;2023-04-27T08:55:13;101726.09;;;20.20;49.39
62617;BME280;62539;51.190;6.808;2023-04-27T08:57:39;101719.00;;;20.22;49.46
62617;BME280;62539;51.190;6.808;2023-04-27T09:00:05;101711.94;;;20.24;49.44
62617;BME280;62539;51.190;6.808;2023-04-27T09:02:44;101717.13;;;20.27;49.41
62617;BME280;62539;51.190;6.808;2023-04-27T09:05:15;101722.31;;;20.31;49.20
62617;BME280;62539;51.190;6.808;2023-04-27T09:08:03;101711.75;;;20.32;49.31
62617;BME280;62539;51.190;6.808;2023-04-27T09:10:48;101714.28;;;20.35;49.21
62617;BME280;62539;51.190;6.808;2023-04-27T09:13:15;101711.56;;;20.38;49.28
62617;BME280;62539;51.190;6.808;2023-04-27T09:15:50;101715.84;;;20.42;49.33
62617;BME280;62539;51.190;6.808;2023-04-27T09:18:21;101710.50;;;20.46;49.46
62617;BME280;62539;51.190;6.808;2023-04-27T09:20:49;101714.81;;;20.48;49.28
62617;BME280;62539;51.190;6.808;2023-04-27T09:23:25;101709.44;;;20.51;49.42
62617;BME280;62539;51.190;6.808;2023-04-27T09:25:52;101708.47;;;20.55;49.43
62617;BME280;62539;51.190;6.808;2023-04-27T09:28:21;101698.72;;;20.58;49.27
62617;BME280;62539;51.190;6.808;2023-04-27T09:31:05;101697.72;;;20.63;49.20
62617;BME280;62539;51.190;6.808;2023-04-27T09:33:34;101702.00;;;20.67;49.44
62617;BME280;62539;51.190;6.808;2023-04-27T09:36:04;101700.09;;;20.71;49.28
62617;BME280;62539;51.190;6.808;2023-04-27T09:38:31;101699.13;;;20.75;49.26
62617;BME280;62539;51.190;6.808;2023-04-27T09:40:58;101696.41;;;20.78;49.22
62617;BME280;62539;51.190;6.808;2023-04-27T09:43:24;101700.69;;;20.82;49.14
62617;BME280;62539;51.190;6.808;2023-04-27T09:45:52;101701.47;;;20.86;48.21
62617;BME280;62539;51.190;6.808;2023-04-27T09:48:20;101700.47;;;20.90;47.79
62617;BME280;62539;51.190;6.808;2023-04-27T09:50:48;101701.25;;;20.94;48.32
62617;BME280;62539;51.190;6.808;2023-04-27T09:53:16;101691.41;;;20.99;48.38
62617;BME280;62539;51.190;6.808;2023-04-27T09:58:42;101690.31;;;21.06;48.43
62617;BME280;62539;51.190;6.808;2023-04-27T10:01:42;101683.13;;;21.11;48.30
62617;BME280;62539;51.190;6.808;2023-04-27T10:04:26;101684.81;;;21.14;48.43
62617;BME280;62539;51.190;6.808;2023-04-27T10:07:08;101682.03;;;21.19;48.44
62617;BME280;62539;51.190;6.808;2023-04-27T10:09:41;101684.47;;;21.25;48.40
62617;BME280;62539;51.190;6.808;2023-04-27T10:12:26;101672.00;;;21.30;48.51
62617;BME280;62539;51.190;6.808;2023-04-27T10:14:58;101663.06;;;21.34;48.32
62617;BME280;62539;51.190;6.808;2023-04-27T10:17:30;101670.81;;;21.39;48.34
62617;BME280;62539;51.190;6.808;2023-04-27T10:20:01;101668.06;;;21.42;48.29
62617;BME280;62539;51.190;6.808;2023-04-27T10:22:46;101667.97;;;21.45;48.01
62617;BME280;62539;51.190;6.808;2023-04-27T10:25:24;101668.75;;;21.49;48.22
62617;BME280;62539;51.190;6.808;2023-04-27T10:27:59;101668.66;;;21.52;47.89
62617;BME280;62539;51.190;6.808;2023-04-27T10:30:31;101662.41;;;21.54;47.89
62617;BME280;62539;51.190;6.808;2023-04-27T10:33:05;101653.47;;;21.58;48.05
62617;BME280;62539;51.190;6.808;2023-04-27T10:35:38;101651.59;;;21.62;47.70
62617;BME280;62539;51.190;6.808;2023-04-27T10:38:09;101658.53;;;21.66;47.90
62617;BME280;62539;51.190;6.808;2023-04-27T10:40:39;101654.06;;;21.68;47.81
62617;BME280;62539;51.190;6.808;2023-04-27T10:43:14;101643.41;;;21.71;47.60
62617;BME280;62539;51.190;6.808;2023-04-27T10:45:42;101641.50;;;21.75;47.43
62617;BME280;62539;51.190;6.808;2023-04-27T10:48:10;101633.44;;;21.80;47.47
62617;BME280;62539;51.190;6.808;2023-04-27T10:50:38;101634.13;;;21.85;47.43
62617;BME280;62539;51.190;6.808;2023-04-27T10:53:05;101635.75;;;21.89;47.40
62617;BME280;62539;51.190;6.808;2023-04-27T10:55:33;101640.84;;;21.94;47.16
62617;BME280;62539;51.190;6.808;2023-04-27T10:57:59;101639.91;;;21.96;47.06
62617;BME280;62539;51.190;6.808;2023-04-27T11:00:31;101641.41;;;22.03;46.96
62617;BME280;62539;51.190;6.808;2023-04-27T11:03:12;101631.59;;;22.07;47.02
62617;BME280;62539;51.190;6.808;2023-04-27T11:05:38;101629.72;;;22.11;46.77
62617;BME280;62539;51.190;6.808;2023-04-27T11:08:09;101644.53;;;22.15;46.76
62617;BME280;62539;51.190;6.808;2023-04-27T11:10:43;101639.03;;;22.21;46.77
62617;BME280;62539;51.190;6.808;2023-04-27T11:13:17;101643.22;;;22.27;46.35
62617;BME280;62539;51.190;6.808;2023-04-27T11:15:47;101636.97;;;22.29;46.49
62617;BME280;62539;51.190;6.808;2023-04-27T11:18:16;101635.84;;;22.35;46.20
62617;BME280;62539;51.190;6.808;2023-04-27T11:20:45;101635.72;;;22.40;46.38
62617;BME280;62539;51.190;6.808;2023-04-27T11:23:25;101631.16;;;22.45;46.26
62617;BME280;62539;51.190;6.808;2023-04-27T11:25:53;101628.31;;;22.50;45.38
62617;BME280;62539;51.190;6.808;2023-04-27T11:28:20;101626.44;;;22.53;45.13
62617;BME280;62539;51.190;6.808;2023-04-27T11:30:54;101623.56;;;22.59;45.40
62617;BME280;62539;51.190;6.808;2023-04-27T11:33:21;101621.59;;;22.65;45.10
62617;BME280;62539;51.190;6.808;2023-04-27T11:35:46;101624.03;;;22.69;44.86
62617;BME280;62539;51.190;6.808;2023-04-27T11:38:17;101622.97;;;22.75;45.12
62617;BME280;62539;51.190;6.808;2023-04-27T11:40:45;101615.72;;;22.80;45.08
62617;BME280;62539;51.190;6.808;2023-04-27T11:43:14;101605.03;;;22.82;42.21
62617;BME280;62539;51.190;6.808;2023-04-27T11:45:43;101610.53;;;22.77;38.44
62617;BME280;62539;51.190;6.808;2023-04-27T11:48:13;101583.44;;;22.70;37.19
62617;BME280;62539;51.190;6.808;2023-04-27T11:50:39;101596.88;;;22.66;37.47
62617;BME280;62539;51.190;6.808;2023-04-27T11:53:05;101591.38;;;22.70;35.95
62617;BME280;62539;51.190;6.808;2023-04-27T11:55:34;101589.63;;;22.71;35.38
62617;BME280;62539;51.190;6.808;2023-04-27T11:58:01;101587.66;;;22.76;35.25
62617;BME280;62539;51.190;6.808;2023-04-27T12:00:26;101588.25;;;22.83;34.99
62617;BME280;62539;51.190;6.808;2023-04-27T12:02:52;101588.00;;;22.89;33.57
62617;BME280;62539;51.190;6.808;2023-04-27T12:05:18;101587.72;;;22.97;33.51
62617;BME280;62539;51.190;6.808;2023-04-27T12:07:44;101581.03;;;23.09;33.53
62617;BME280;62539;51.190;6.808;2023-04-27T12:10:10;101582.34;;;23.20;34.31
62617;BME280;62539;51.190;6.808;2023-04-27T12:12:36;101582.66;;;23.35;34.47
62617;BME280;62539;51.190;6.808;2023-04-27T12:15:02;101578.56;;;23.48;34.76
62617;BME280;62539;51.190;6.808;2023-04-27T12:17:27;101577.09;;;23.62;35.21
62617;BME280;62539;51.190;6.808;2023-04-27T12:19:53;101577.78;;;23.67;35.10
62617;BME280;62539;51.190;6.808;2023-04-27T12:22:19;101574.84;;;23.73;35.47
62617;BME280;62539;51.190;6.808;2023-04-27T12:24:44;101571.50;;;23.89;35.37
62617;BME280;62539;51.190;6.808;2023-04-27T12:27:10;101568.31;;;24.01;35.70
62617;BME280;62539;51.190;6.808;2023-04-27T12:29:36;101567.13;;;24.08;35.64
62617;BME280;62539;51.190;6.808;2023-04-27T12:32:01;101567.72;;;24.15;36.15
62617;BME280;62539;51.190;6.808;2023-04-27T12:34:27;101561.19;;;24.22;36.09
62617;BME280;62539;51.190;6.808;2023-04-27T12:36:52;101564.50;;;24.28;36.16
62617;BME280;62539;51.190;6.808;2023-04-27T12:39:20;101562.34;;;24.36;36.20
62617;BME280;62539;51.190;6.808;2023-04-27T12:41:49;101561.28;;;24.40;36.20
62617;BME280;62539;51.190;6.808;2023-04-27T12:44:16;101560.34;;;24.41;36.90
62617;BME280;62539;51.190;6.808;2023-04-27T12:46:44;101564.63;;;24.44;36.80
62617;BME280;62539;51.190;6.808;2023-04-27T12:49:10;101567.41;;;24.60;36.92
62617;BME280;62539;51.190;6.808;2023-04-27T12:51:37;101563.84;;;24.61;36.79
62617;BME280;62539;51.190;6.808;2023-04-27T12:54:03;101562.50;;;24.70;36.59